Time;durP1;ratioP1;P1;durP2;ratioP2;P2;SDS_P1;SDS_P2;PMS_P1;PMS_P2;Temp;Humidity;BMP_temperature;BMP_pressure;BME280_temperature;BME280_humidity;BME280_pressure;Samples;Min_cycle;Max_cycle;Signal;HPM_P1;HPM_P2
2024/03/10 00:02:48;;;;;;;15.03;11.50;;;;;;;7.04;100.00;96711.44;6332760;28;20682;-55
2024/03/10 00:05:51;;;;;;;14.23;10.83;;;;;;;6.93;100.00;96707.84;6329913;28;20246;-56
2024/03/10 00:08:53;;;;;;;13.83;10.27;;;;;;;6.83;100.00;96704.25;6331593;28;20703;-49
2024/03/10 00:11:55;;;;;;;12.17;9.27;;;;;;;6.93;100.00;96684.03;6334019;28;20194;-52
2024/03/10 00:14:58;;;;;;;14.93;10.37;;;;;;;6.97;100.00;96679.84;6334810;28;20588;-51
2024/03/10 00:18:00;;;;;;;13.43;10.80;;;;;;;6.94;100.00;96688.28;6341387;28;20670;-54
2024/03/10 00:21:06;;;;;;;13.60;10.97;;;;;;;7.02;100.00;96686.28;6333474;28;20278;-51
2024/03/10 00:24:08;;;;;;;15.33;11.13;;;;;;;6.93;100.00;96678.72;6312350;28;20192;-56
2024/03/10 00:27:13;;;;;;;14.37;11.57;;;;;;;6.75;100.00;96659.66;6338291;28;20193;-53
2024/03/10 00:30:16;;;;;;;15.00;10.57;;;;;;;6.80;100.00;96659.72;6313809;28;20220;-55
2024/03/10 00:33:19;;;;;;;15.87;11.07;;;;;;;6.61;100.00;96656.56;6323566;28;20184;-55
2024/03/10 00:36:22;;;;;;;13.23;10.43;;;;;;;6.56;100.00;96651.19;6330299;28;20543;-51
2024/03/10 00:39:24;;;;;;;15.10;10.77;;;;;;;6.57;100.00;96652.78;6336182;28;20208;-53
2024/03/10 00:42:26;;;;;;;15.27;10.97;;;;;;;6.43;100.00;96657.59;6317991;28;20216;-51
2024/03/10 00:45:28;;;;;;;20.63;14.03;;;;;;;6.61;100.00;96641.47;6322814;28;20698;-55
2024/03/10 00:48:30;;;;;;;16.67;12.07;;;;;;;6.76;100.00;96646.19;6319072;28;20967;-53
2024/03/10 00:51:35;;;;;;;16.43;13.43;;;;;;;6.80;100.00;96635.91;6335031;28;20200;-54
2024/03/10 00:54:37;;;;;;;16.87;12.83;;;;;;;6.69;100.00;96625.19;6337663;28;20691;-50
2024/03/10 00:57:40;;;;;;;17.77;12.80;;;;;;;6.64;100.00;96627.75;6332941;28;20322;-52
2024/03/10 01:00:43;;;;;;;17.07;12.57;;;;;;;6.72;100.00;96627.34;6328201;28;20280;-55
2024/03/10 01:03:45;;;;;;;16.13;12.20;;;;;;;6.67;100.00;96619.34;6331656;28;20213;-50
2024/03/10 01:06:47;;;;;;;16.97;11.40;;;;;;;6.73;100.00;96620.22;6311302;28;20208;-54
2024/03/10 01:09:50;;;;;;;15.33;12.27;;;;;;;6.60;100.00;96623.19;6325494;28;20205;-56
2024/03/10 01:12:52;;;;;;;15.80;11.67;;;;;;;6.44;100.00;96617.66;6337304;28;20201;-53
2024/03/10 01:15:54;;;;;;;15.43;12.30;;;;;;;6.29;100.00;96614.78;6337308;28;20217;-55
2024/03/10 01:18:56;;;;;;;17.23;13.30;;;;;;;6.63;100.00;96609.47;6330958;28;20200;-49
2024/03/10 01:21:58;;;;;;;16.27;12.73;;;;;;;6.64;100.00;96597.84;6328451;28;20606;-55
2024/03/10 01:25:01;;;;;;;16.40;11.77;;;;;;;6.57;100.00;96613.91;6327452;28;20203;-56
2024/03/10 01:28:05;;;;;;;16.53;12.10;;;;;;;6.52;100.00;96603.25;6328626;28;20843;-52
2024/03/10 01:31:09;;;;;;;17.77;14.07;;;;;;;6.52;100.00;96597.16;6331504;28;20773;-53
2024/03/10 01:34:11;;;;;;;19.60;13.70;;;;;;;6.59;100.00;96601.22;6331056;28;20278;-54
2024/03/10 01:37:14;;;;;;;20.93;15.30;;;;;;;6.61;100.00;96604.44;6334461;28;20650;-51
2024/03/10 01:40:16;;;;;;;19.77;14.13;;;;;;;6.63;100.00;96609.47;6338572;28;20694;-54
2024/03/10 01:43:18;;;;;;;19.97;15.47;;;;;;;6.73;100.00;96596.38;6340976;28;20211;-55
2024/03/10 01:46:24;;;;;;;21.43;15.33;;;;;;;6.61;100.00;96574.53;6328423;28;20200;-56
2024/03/10 01:49:26;;;;;;;20.63;15.97;;;;;;;6.79;100.00;96587.47;6329471;28;20193;-56
2024/03/10 01:52:29;;;;;;;20.83;15.40;;;;;;;6.83;100.00;96585.94;6325936;28;20188;-53
2024/03/10 01:55:31;;;;;;;20.37;14.90;;;;;;;6.94;100.00;96585.00;6329052;28;20203;-50
2024/03/10 01:58:36;;;;;;;18.47;13.63;;;;;;;6.96;100.00;96576.84;6311071;28;20201;-54
2024/03/10 02:01:38;;;;;;;18.93;14.33;;;;;;;6.91;100.00;96571.50;6319042;28;20250;-53
2024/03/10 02:04:41;;;;;;;16.97;13.57;;;;;;;6.95;100.00;96568.09;6322746;28;20580;-49
2024/03/10 02:07:43;;;;;;;19.20;14.37;;;;;;;7.06;100.00;96578.81;6335636;28;20268;-56
2024/03/10 02:10:48;;;;;;;16.10;12.93;;;;;;;6.90;100.00;96576.00;6331409;28;20696;-51
2024/03/10 02:13:50;;;;;;;17.77;13.43;;;;;;;7.01;100.00;96566.31;6329019;28;20193;-53
2024/03/10 02:16:53;;;;;;;16.67;12.57;;;;;;;7.09;100.00;96565.06;6333075;28;20357;-53
2024/03/10 02:19:59;;;;;;;17.60;13.37;;;;;;;7.10;100.00;96562.19;6332366;28;20198;-50
2024/03/10 02:23:01;;;;;;;18.50;14.40;;;;;;;7.20;100.00;96561.53;6328625;28;20210;-52
2024/03/10 02:26:04;;;;;;;16.57;13.37;;;;;;;7.16;100.00;96561.19;6329388;28;20196;-55
2024/03/10 02:29:59;;;;;;;18.73;14.07;;;;;;;7.15;100.00;96553.50;6312084;28;20211;-48
2024/03/10 02:49:21;;;;;;;21.20;14.50;;;;;;;6.96;100.00;96529.19;6330581;28;20197;-56
2024/03/10 02:52:23;;;;;;;18.13;13.93;;;;;;;6.98;100.00;96542.97;6332336;28;20189;-53
2024/03/10 02:55:26;;;;;;;19.60;14.53;;;;;;;7.08;100.00;96537.00;6335313;28;20190;-53
2024/03/10 02:58:28;;;;;;;18.87;15.30;;;;;;;7.11;100.00;96531.22;6334855;28;20546;-54
2024/03/10 03:01:30;;;;;;;20.93;15.33;;;;;;;7.00;100.00;96506.47;6335955;28;20223;-54
2024/03/10 03:04:33;;;;;;;19.27;15.30;;;;;;;7.09;100.00;96523.50;6343782;28;20212;-56
2024/03/10 03:07:35;;;;;;;18.57;14.87;;;;;;;7.05;100.00;96517.13;6328727;28;20197;-55
2024/03/10 03:10:37;;;;;;;17.60;15.10;;;;;;;7.09;100.00;96509.47;6338763;28;20194;-49
2024/03/10 03:13:39;;;;;;;19.20;14.60;;;;;;;7.00;100.00;96490.59;6334794;28;20664;-51
2024/03/10 03:16:45;;;;;;;20.17;15.40;;;;;;;6.96;100.00;96490.28;6329297;28;20734;-52
2024/03/10 03:19:47;;;;;;;20.63;16.13;;;;;;;7.11;100.00;96507.38;6332895;28;20267;-51
2024/03/10 03:22:49;;;;;;;20.37;14.90;;;;;;;7.07;100.00;96506.28;6331676;28;20684;-54
2024/03/10 03:25:53;;;;;;;20.70;15.83;;;;;;;7.15;100.00;96503.19;6331275;28;20197;-51
2024/03/10 03:28:55;;;;;;;21.80;15.50;;;;;;;7.04;100.00;96498.81;6338115;28;20268;-53
2024/03/10 03:31:58;;;;;;;19.10;15.60;;;;;;;7.06;100.00;96481.66;6323278;28;20278;-49
2024/03/10 03:35:01;;;;;;;23.37;17.53;;;;;;;7.10;100.00;96508.44;6334516;28;20205;-53
2024/03/10 03:38:04;;;;;;;20.33;16.47;;;;;;;7.11;100.00;96500.25;6322181;28;20274;-53
2024/03/10 03:41:06;;;;;;;19.93;16.23;;;;;;;7.17;100.00;96504.53;6332682;28;20688;-55
2024/03/10 03:44:09;;;;;;;23.13;17.90;;;;;;;7.08;100.00;96476.09;6336313;28;20196;-53
2024/03/10 03:47:15;;;;;;;23.30;15.87;;;;;;;7.11;100.00;96488.84;6333074;28;20659;-53
2024/03/10 03:50:18;;;;;;;21.03;16.40;;;;;;;7.18;100.00;96478.84;6333239;28;20722;-54
2024/03/10 03:53:20;;;;;;;22.23;15.33;;;;;;;6.85;100.00;96456.00;6337777;28;20265;-53
2024/03/10 03:56:22;;;;;;;19.93;15.73;;;;;;;6.96;100.00;96457.72;6333612;28;20198;-53
2024/03/10 03:59:25;;;;;;;20.33;15.47;;;;;;;7.00;100.00;96472.06;6330987;28;20181;-53
2024/03/10 04:02:27;;;;;;;21.63;16.10;;;;;;;6.95;100.00;96464.84;6328812;28;20740;-48
2024/03/10 04:05:29;;;;;;;20.40;15.10;;;;;;;7.09;100.00;96480.34;6341858;28;20275;-56
2024/03/10 04:08:32;;;;;;;17.57;14.00;;;;;;;7.09;100.00;96478.47;6334680;28;20197;-54
2024/03/10 04:11:34;;;;;;;17.77;12.87;;;;;;;7.05;100.00;96473.97;6328438;28;20678;-55
2024/03/10 04:14:37;;;;;;;18.73;13.23;;;;;;;7.02;100.00;96455.91;6331119;28;20659;-52
2024/03/10 04:17:39;;;;;;;16.23;12.67;;;;;;;7.06;100.00;96470.25;6329816;28;20186;-50
2024/03/10 04:20:45;;;;;;;16.93;13.53;;;;;;;7.04;100.00;96465.19;6330319;28;20701;-54
2024/03/10 04:23:47;;;;;;;18.13;13.63;;;;;;;7.03;100.00;96463.59;6332318;28;20664;-53
2024/03/10 04:26:49;;;;;;;18.10;13.60;;;;;;;7.02;100.00;96448.75;6332431;28;20227;-50
2024/03/10 04:29:51;;;;;;;16.03;12.63;;;;;;;6.94;100.00;96441.25;6331686;28;20665;-52
2024/03/10 04:32:54;;;;;;;18.13;14.10;;;;;;;6.96;100.00;96441.81;6337508;28;20813;-55
2024/03/10 04:35:56;;;;;;;19.50;13.53;;;;;;;6.98;100.00;96439.72;6317319;28;20204;-52
2024/03/10 04:38:59;;;;;;;18.23;14.33;;;;;;;6.89;100.00;96434.06;6332375;28;20831;-55
2024/03/10 04:42:01;;;;;;;17.80;13.40;;;;;;;7.02;100.00;96432.88;6329509;28;20203;-54
2024/03/10 04:45:06;;;;;;;17.20;13.27;;;;;;;7.04;100.00;96428.13;6332873;28;20233;-53
2024/03/10 04:48:10;;;;;;;20.27;13.73;;;;;;;6.97;100.00;96430.97;6325935;28;20648;-50
2024/03/10 04:51:13;;;;;;;17.90;13.43;;;;;;;7.07;100.00;96432.13;6331366;28;20451;-54
2024/03/10 04:54:15;;;;;;;18.83;14.60;;;;;;;7.12;100.00;96432.19;6337067;28;20201;-56
2024/03/10 04:57:22;;;;;;;18.30;13.60;;;;;;;7.07;100.00;96446.16;6330715;28;20204;-51
2024/03/10 05:00:25;;;;;;;16.43;12.27;;;;;;;7.09;100.00;96436.13;6338507;28;20574;-53
2024/03/10 05:03:28;;;;;;;15.87;12.53;;;;;;;7.01;100.00;96428.63;6332830;28;20207;-52
2024/03/10 05:06:30;;;;;;;15.03;12.57;;;;;;;7.00;100.00;96429.69;6329309;28;20300;-54
2024/03/10 05:09:32;;;;;;;16.63;12.47;;;;;;;6.92;100.00;96425.63;6314337;28;20193;-56
2024/03/10 05:12:35;;;;;;;19.23;13.23;;;;;;;7.06;100.00;96444.56;6330197;28;20192;-54
2024/03/10 05:15:37;;;;;;;17.87;13.17;;;;;;;7.09;100.00;96438.75;6311469;28;20193;-54
2024/03/10 05:18:40;;;;;;;18.60;12.33;;;;;;;7.03;100.00;96433.66;6333357;28;20216;-55
2024/03/10 05:21:46;;;;;;;15.90;11.87;;;;;;;7.04;100.00;96444.00;6340172;28;20233;-55
2024/03/10 05:24:48;;;;;;;16.00;12.40;;;;;;;6.98;100.00;96439.72;6327170;28;20314;-55
2024/03/10 05:27:51;;;;;;;18.07;13.20;;;;;;;6.83;100.00;96423.66;6332944;28;20700;-55
2024/03/10 05:30:53;;;;;;;17.27;12.80;;;;;;;7.08;100.00;96444.31;6335974;28;20193;-54
2024/03/10 05:33:59;;;;;;;18.80;13.13;;;;;;;7.09;100.00;96438.75;6330182;28;20196;-54
2024/03/10 05:37:04;;;;;;;16.90;12.40;;;;;;;6.93;100.00;96421.94;6328168;28;20226;-56
2024/03/10 05:40:11;;;;;;;17.03;12.27;;;;;;;7.13;100.00;96439.88;6326920;28;20197;-55
2024/03/10 05:43:13;;;;;;;17.43;13.13;;;;;;;7.12;100.00;96442.78;6329342;28;20209;-56
2024/03/10 05:46:15;;;;;;;14.67;11.73;;;;;;;7.06;100.00;96443.78;6336337;28;20216;-51
2024/03/10 05:49:17;;;;;;;15.97;11.90;;;;;;;7.09;100.00;96440.63;6336417;28;20192;-56
2024/03/10 05:52:19;;;;;;;15.30;11.57;;;;;;;7.07;100.00;96456.75;6304085;28;20190;-54
2024/03/10 05:55:21;;;;;;;14.90;11.47;;;;;;;7.09;100.00;96454.66;6323683;28;20190;-51
2024/03/10 05:58:24;;;;;;;17.60;11.93;;;;;;;7.05;100.00;96453.56;6323119;28;20690;-54
2024/03/10 06:01:28;;;;;;;16.00;11.37;;;;;;;7.16;100.00;96449.97;6329449;28;20650;-55
2024/03/10 06:04:30;;;;;;;15.93;12.23;;;;;;;7.10;100.00;96456.28;6339599;28;20295;-56
2024/03/10 06:07:32;;;;;;;15.20;11.63;;;;;;;7.03;100.00;96444.25;6336172;28;20203;-57
2024/03/10 06:10:34;;;;;;;14.70;11.63;;;;;;;7.00;100.00;96436.84;6339149;28;20228;-56
2024/03/10 06:13:38;;;;;;;15.97;11.50;;;;;;;7.02;100.00;96440.03;6344834;28;20195;-51
2024/03/10 06:16:40;;;;;;;17.00;10.67;;;;;;;7.10;100.00;96440.38;6318710;28;20214;-54
2024/03/10 06:26:24;;;;;;;14.87;10.63;;;;;;;7.06;100.00;96423.38;6342478;28;20684;-56
2024/03/10 06:29:26;;;;;;;13.53;9.50;;;;;;;7.39;100.00;96430.31;6337226;28;20560;-55
2024/03/10 06:32:29;;;;;;;11.77;9.30;;;;;;;7.47;100.00;96434.34;6336453;28;20734;-53
2024/03/10 06:35:32;;;;;;;11.73;8.10;;;;;;;7.59;100.00;96428.91;6325212;28;20196;-48
2024/03/10 06:38:38;;;;;;;8.80;7.17;;;;;;;7.56;100.00;96429.38;6325443;28;20209;-56
2024/03/10 06:41:40;;;;;;;11.30;8.30;;;;;;;7.54;100.00;96434.13;6316721;28;20192;-56
2024/03/10 06:44:43;;;;;;;11.90;8.27;;;;;;;7.73;100.00;96435.34;6344330;28;20296;-55
2024/03/10 06:47:45;;;;;;;12.53;8.50;;;;;;;7.86;100.00;96445.53;6333634;28;20693;-55
2024/03/10 06:50:47;;;;;;;10.17;7.70;;;;;;;7.91;100.00;96442.09;6345436;28;20276;-56
2024/03/10 06:53:49;;;;;;;10.97;8.03;;;;;;;7.92;100.00;96447.16;6336640;28;20275;-54
2024/03/10 06:56:51;;;;;;;9.27;7.23;;;;;;;7.88;100.00;96447.91;6338136;28;20673;-57
2024/03/10 06:59:53;;;;;;;10.70;7.93;;;;;;;7.75;100.00;96435.91;6339206;28;20284;-52
2024/03/10 07:02:57;;;;;;;11.70;8.60;;;;;;;7.93;100.00;96456.72;6338540;28;20204;-54
2024/03/10 07:06:01;;;;;;;14.57;9.27;;;;;;;8.06;100.00;96459.97;6339631;28;20210;-57
2024/03/10 07:09:08;;;;;;;11.77;8.70;;;;;;;7.96;100.00;96471.31;6339784;28;20216;-55
2024/03/10 07:12:14;;;;;;;12.27;9.07;;;;;;;7.95;100.00;96453.81;6345150;28;20230;-54
2024/03/10 07:15:16;;;;;;;12.63;8.97;;;;;;;8.02;100.00;96457.81;6328788;28;20231;-55
2024/03/10 07:18:20;;;;;;;10.67;8.93;;;;;;;7.98;100.00;96448.81;6341106;28;20250;-55
2024/03/10 07:21:23;;;;;;;13.10;9.73;;;;;;;8.13;100.00;96457.91;6335059;28;20877;-56
2024/03/10 07:24:25;;;;;;;11.40;9.23;;;;;;;7.96;100.00;96431.53;6336623;28;20213;-57
2024/03/10 07:27:31;;;;;;;13.93;10.10;;;;;;;8.08;100.00;96448.06;6333941;28;20197;-54
2024/03/10 07:30:36;;;;;;;11.57;9.10;;;;;;;8.17;100.00;96435.09;6333960;28;20198;-53
2024/03/10 07:33:38;;;;;;;11.67;8.87;;;;;;;8.18;100.00;96440.16;6331475;28;20407;-51
2024/03/10 07:36:41;;;;;;;11.97;8.63;;;;;;;8.25;100.00;96429.31;6338305;28;20245;-56
2024/03/10 07:39:46;;;;;;;11.80;9.07;;;;;;;8.42;100.00;96421.19;6339764;28;20194;-55
2024/03/10 07:42:49;;;;;;;11.20;8.77;;;;;;;8.57;100.00;96425.75;6327190;28;20243;-56
2024/03/10 07:45:51;;;;;;;13.00;9.43;;;;;;;8.77;97.26;96421.34;6336478;28;20210;-57
2024/03/10 07:48:54;;;;;;;11.67;8.77;;;;;;;8.91;96.49;96421.63;6335577;28;20208;-57
2024/03/10 07:51:57;;;;;;;13.20;8.90;;;;;;;9.11;95.51;96409.47;6306354;28;20207;-55
2024/03/10 07:54:59;;;;;;;11.27;8.97;;;;;;;9.24;96.37;96400.97;6332639;28;20197;-58
2024/03/10 07:58:02;;;;;;;9.33;7.67;;;;;;;9.42;92.10;96397.81;6329418;28;20192;-55
2024/03/10 08:01:06;;;;;;;11.23;8.50;;;;;;;9.52;90.70;96386.38;6326106;28;20197;-58
2024/03/10 08:04:10;;;;;;;9.67;7.80;;;;;;;9.54;90.17;96385.03;6327149;28;20193;-56
2024/03/10 08:07:14;;;;;;;10.20;7.70;;;;;;;9.70;90.01;96385.03;6340610;28;20277;-53
2024/03/10 08:10:16;;;;;;;8.50;6.90;;;;;;;9.77;87.28;96380.25;6324523;28;20191;-50
2024/03/10 08:13:19;;;;;;;9.23;6.47;;;;;;;9.72;84.70;96345.69;6323002;28;20210;-52
2024/03/10 08:16:21;;;;;;;9.60;6.70;;;;;;;9.70;88.00;96371.72;6322045;28;20194;-56
2024/03/10 08:19:25;;;;;;;11.00;6.53;;;;;;;9.76;87.22;96376.00;6330812;28;20911;-57
2024/03/10 08:22:27;;;;;;;8.03;6.17;;;;;;;9.86;83.75;96364.53;6330904;28;20722;-52
2024/03/10 08:25:30;;;;;;;9.23;6.23;;;;;;;9.80;85.30;96345.94;6309548;28;20297;-56
2024/03/10 08:28:33;;;;;;;8.90;5.93;;;;;;;10.20;84.34;96351.41;6308961;28;20191;-55
2024/03/10 08:31:35;;;;;;;8.83;6.03;;;;;;;10.43;82.20;96365.97;6315168;28;20199;-55
2024/03/10 08:34:37;;;;;;;10.63;6.53;;;;;;;10.41;80.46;96352.16;6319588;28;20275;-49
2024/03/10 08:37:41;;;;;;;7.90;6.07;;;;;;;10.43;80.17;96342.81;6338139;28;20218;-56
2024/03/10 08:40:44;;;;;;;9.07;6.37;;;;;;;10.52;79.92;96359.81;6315107;28;20201;-55
2024/03/10 08:43:47;;;;;;;9.57;6.73;;;;;;;10.72;79.12;96372.22;6313913;28;20752;-55
2024/03/10 08:46:50;;;;;;;7.27;6.00;;;;;;;10.57;79.19;96372.31;6333443;28;20207;-55
2024/03/10 08:49:52;;;;;;;7.57;6.57;;;;;;;10.31;80.29;96332.50;6330249;28;20199;-57
2024/03/10 08:52:55;;;;;;;9.63;6.57;;;;;;;10.60;81.30;96358.47;6333295;28;20715;-55
2024/03/10 08:55:57;;;;;;;8.03;6.53;;;;;;;10.54;81.20;96392.31;6331371;28;20208;-55
2024/03/10 08:58:59;;;;;;;7.27;6.20;;;;;;;10.45;81.52;96391.28;6325460;28;20192;-57
2024/03/10 09:02:02;;;;;;;8.53;6.60;;;;;;;10.33;83.06;96394.22;6340984;28;20337;-56
2024/03/10 09:05:07;;;;;;;8.03;6.80;;;;;;;10.41;84.35;96410.72;6331518;28;20203;-56
2024/03/10 09:08:10;;;;;;;9.83;7.23;;;;;;;10.59;82.46;96415.47;6338270;28;20680;-52
2024/03/10 09:11:12;;;;;;;9.17;7.17;;;;;;;10.67;82.65;96417.53;6338027;28;20282;-54
2024/03/10 09:14:15;;;;;;;11.40;7.33;;;;;;;10.21;84.65;96396.38;6333784;28;20196;-52
2024/03/10 09:17:17;;;;;;;10.27;7.73;;;;;;;10.15;87.10;96432.06;6329565;28;20810;-56
2024/03/10 09:20:20;;;;;;;8.10;6.63;;;;;;;10.20;87.17;96423.28;6329934;28;20736;-56
2024/03/10 09:23:25;;;;;;;8.70;6.43;;;;;;;10.18;87.26;96425.38;6335595;28;20190;-55
2024/03/10 09:26:28;;;;;;;9.23;7.10;;;;;;;10.15;87.96;96418.75;6334281;28;20197;-57
2024/03/10 09:29:31;;;;;;;10.80;7.07;;;;;;;9.95;90.82;96408.13;6340066;28;20205;-55
2024/03/10 09:32:33;;;;;;;8.60;7.33;;;;;;;9.88;92.10;96415.59;6334646;28;20196;-57
2024/03/10 09:35:35;;;;;;;9.77;8.00;;;;;;;9.89;91.78;96398.56;6337892;28;20279;-56
2024/03/10 09:38:40;;;;;;;8.90;7.70;;;;;;;9.96;92.39;96394.59;6334553;28;20194;-56
2024/03/10 09:41:42;;;;;;;11.40;7.80;;;;;;;10.01;92.53;96388.44;6333679;28;20279;-57
2024/03/10 09:44:45;;;;;;;9.93;7.77;;;;;;;9.84;93.96;96356.81;6330354;28;20211;-57
2024/03/10 09:47:49;;;;;;;9.27;7.40;;;;;;;9.92;93.24;96360.81;6331002;28;20196;-52
2024/03/10 09:50:52;;;;;;;10.30;7.70;;;;;;;10.08;93.87;96357.03;6318299;28;20192;-57
2024/03/10 09:53:55;;;;;;;10.43;7.27;;;;;;;10.44;92.10;96354.25;6325067;28;20187;-54
2024/03/10 09:57:00;;;;;;;7.67;6.37;;;;;;;10.65;90.85;96358.44;6318860;28;20199;-52
2024/03/10 10:00:12;;;;;;;11.00;6.97;;;;;;;10.73;88.41;96360.50;6323453;28;20200;-56
2024/03/10 10:03:15;;;;;;;8.73;6.73;;;;;;;10.75;90.32;96365.56;6321030;28;20216;-54
2024/03/10 10:06:19;;;;;;;8.57;7.03;;;;;;;10.74;89.74;96379.97;6329884;28;20346;-57
2024/03/10 10:09:26;;;;;;;9.50;7.10;;;;;;;10.67;90.73;96376.78;6328050;28;20196;-57
2024/03/10 10:12:28;;;;;;;7.47;6.77;;;;;;;10.64;91.34;96378.16;6328106;28;20204;-55
2024/03/10 10:15:33;;;;;;;9.07;7.00;;;;;;;10.77;90.23;96374.06;6333588;28;20189;-54
2024/03/10 10:18:36;;;;;;;8.07;6.23;;;;;;;10.89;89.62;96363.09;6328837;28;20196;-50
2024/03/10 10:21:55;;;;;;;9.53;7.13;;;;;;;11.11;89.85;96372.25;6335777;28;20244;-55
2024/03/10 10:25:04;;;;;;;8.37;6.60;;;;;;;11.25;88.22;96350.31;6321526;28;20204;-55
2024/03/10 10:28:13;;;;;;;7.67;5.67;;;;;;;11.43;88.04;96351.50;6322916;28;20784;-52
2024/03/10 10:31:16;;;;;;;6.73;5.70;;;;;;;11.63;86.79;96359.34;6337078;28;20197;-52
2024/03/10 10:34:18;;;;;;;6.63;5.67;;;;;;;11.82;85.46;96338.91;6329426;28;20221;-53
2024/03/10 10:37:22;;;;;;;6.40;5.43;;;;;;;12.01;85.65;96346.97;6327361;28;20209;-54
2024/03/10 10:40:25;;;;;;;5.97;4.83;;;;;;;11.89;83.81;96335.91;6329384;28;20194;-54
2024/03/10 10:43:27;;;;;;;8.90;6.00;;;;;;;11.92;84.37;96346.03;6326938;28;20197;-57
2024/03/10 10:46:32;;;;;;;5.73;5.00;;;;;;;11.97;83.17;96353.16;6305101;28;20287;-54
2024/03/10 10:49:34;;;;;;;8.00;5.93;;;;;;;11.99;84.69;96349.16;6321335;28;20314;-55
2024/03/10 10:52:41;;;;;;;5.60;5.10;;;;;;;12.06;82.99;96338.13;6323812;28;20189;-55
2024/03/10 10:55:45;;;;;;;7.60;5.30;;;;;;;12.09;82.90;96345.56;6323059;28;20183;-58
2024/03/10 10:58:53;;;;;;;6.87;5.80;;;;;;;11.84;84.25;96343.97;6339226;28;20212;-56
2024/03/10 11:02:13;;;;;;;6.87;5.90;;;;;;;11.84;84.06;96330.63;6325880;28;20196;-56
2024/03/10 11:05:18;;;;;;;7.60;6.10;;;;;;;11.73;86.57;96335.25;6335776;28;20713;-56
2024/03/10 11:08:21;;;;;;;6.07;5.47;;;;;;;11.80;87.32;96309.00;6334706;28;20197;-56
2024/03/10 11:11:47;;;;;;;6.23;5.63;;;;;;;11.75;86.04;96302.94;6331593;28;20173;-53
2024/03/10 11:14:53;;;;;;;6.60;5.67;;;;;;;11.98;85.28;96299.53;6334906;28;20190;-56
2024/03/10 11:17:56;;;;;;;6.87;5.87;;;;;;;12.06;87.34;96303.41;6337407;28;20204;-55
2024/03/10 11:21:05;;;;;;;8.77;5.67;;;;;;;12.18;84.21;96279.00;6328226;28;20237;-55
2024/03/10 11:24:30;;;;;;;5.97;5.30;;;;;;;12.16;86.03;96286.50;6328005;28;20729;-52
2024/03/10 11:27:44;;;;;;;6.40;5.30;;;;;;;12.15;84.32;96253.66;6330909;28;20778;-54
2024/03/10 11:30:49;;;;;;;6.90;5.60;;;;;;;12.27;84.14;96280.75;6336570;28;20198;-54
2024/03/10 11:34:03;;;;;;;5.67;4.93;;;;;;;12.05;84.31;96254.59;6331044;28;20229;-55
2024/03/10 11:37:15;;;;;;;7.20;5.30;;;;;;;12.25;84.18;96284.78;6319496;28;20210;-55
2024/03/10 11:40:17;;;;;;;8.23;5.60;;;;;;;12.48;82.21;96291.97;6313578;28;20197;-55
2024/03/10 11:43:20;;;;;;;6.57;5.30;;;;;;;12.50;80.93;96278.31;6336268;28;20193;-54
2024/03/10 11:46:27;;;;;;;7.73;5.00;;;;;;;12.67;80.49;96267.13;6322044;28;20205;-58
2024/03/10 11:49:29;;;;;;;5.70;4.73;;;;;;;12.70;80.93;96221.13;6326450;28;20221;-54
2024/03/10 11:52:32;;;;;;;5.87;4.47;;;;;;;13.11;81.62;96256.81;6329841;28;20189;-50
2024/03/10 11:55:37;;;;;;;5.03;3.90;;;;;;;13.46;75.74;96249.28;6337086;28;20294;-54
2024/03/10 11:58:43;;;;;;;4.27;3.10;;;;;;;13.76;72.45;96255.19;6334242;28;20199;-54
2024/03/10 12:01:47;;;;;;;4.13;3.00;;;;;;;14.07;68.85;96258.81;6329793;28;20201;-56
2024/03/10 12:04:49;;;;;;;3.20;2.03;;;;;;;14.26;65.07;96257.94;6315680;28;20222;-56
2024/03/10 12:07:57;;;;;;;3.37;2.10;;;;;;;14.06;63.54;96246.53;6330109;28;20204;-55
2024/03/10 12:11:00;;;;;;;2.80;1.90;;;;;;;14.06;64.88;96276.00;6325293;28;20682;-56
2024/03/10 12:14:11;;;;;;;4.53;1.87;;;;;;;14.11;62.70;96275.88;6311871;28;20188;-57
2024/03/10 12:17:14;;;;;;;3.70;1.60;;;;;;;14.09;61.80;96269.25;6312783;28;20202;-56
2024/03/10 12:20:18;;;;;;;2.87;1.80;;;;;;;14.15;63.05;96254.66;6324600;28;20242;-51
2024/03/10 12:23:23;;;;;;;5.20;1.77;;;;;;;14.39;60.66;96283.91;6329258;28;20667;-56
2024/03/10 12:26:25;;;;;;;3.97;1.77;;;;;;;14.40;62.30;96267.53;6331576;28;20201;-54
2024/03/10 12:29:27;;;;;;;3.70;1.80;;;;;;;14.67;60.71;96247.91;6332223;28;20197;-55
2024/03/10 12:32:31;;;;;;;4.60;1.63;;;;;;;14.78;60.13;96283.34;6329850;28;20721;-54
2024/03/10 12:35:34;;;;;;;2.90;1.73;;;;;;;14.83;58.90;96272.50;6331186;28;20182;-55
2024/03/10 12:38:39;;;;;;;3.13;2.23;;;;;;;14.52;59.82;96298.38;6325077;28;20200;-57
2024/03/10 12:41:44;;;;;;;3.73;2.03;;;;;;;14.29;60.99;96290.28;6339755;28;20726;-57
2024/03/10 12:44:50;;;;;;;3.60;2.33;;;;;;;14.24;61.95;96285.03;6331475;28;20202;-55
2024/03/10 12:47:53;;;;;;;5.53;2.10;;;;;;;14.27;62.25;96281.72;6333964;28;20200;-52
2024/03/10 12:50:56;;;;;;;3.50;2.07;;;;;;;14.31;63.92;96290.75;6335567;28;20669;-57
2024/03/10 12:53:58;;;;;;;5.73;2.00;;;;;;;14.42;62.21;96284.09;6334825;28;20330;-57
2024/03/10 12:57:01;;;;;;;3.33;2.03;;;;;;;14.39;63.12;96298.09;6332185;28;20312;-56
2024/03/10 13:00:23;;;;;;;6.33;1.97;;;;;;;14.33;63.13;96306.53;6329589;28;20235;-55
2024/03/10 13:03:33;;;;;;;3.90;2.20;;;;;;;14.39;62.38;96291.94;6330410;28;20566;-51
2024/03/10 13:06:36;;;;;;;6.27;2.33;;;;;;;14.28;62.53;96301.25;6337734;28;20210;-54
2024/03/10 13:09:38;;;;;;;4.77;2.13;;;;;;;14.43;62.86;96292.91;6331506;28;20197;-54
2024/03/10 13:12:41;;;;;;;4.60;2.27;;;;;;;14.27;64.35;96286.28;6310667;28;20199;-55
2024/03/10 13:15:43;;;;;;;4.23;2.17;;;;;;;14.41;63.35;96295.09;6324303;28;20583;-56
2024/03/10 13:18:46;;;;;;;3.63;2.30;;;;;;;14.37;63.15;96297.59;6330581;28;20547;-53
2024/03/10 13:21:49;;;;;;;5.07;2.60;;;;;;;14.25;63.80;96291.97;6333497;28;20718;-57
2024/03/10 13:24:51;;;;;;;4.83;2.10;;;;;;;14.17;65.00;96285.41;6330979;28;20278;-55
2024/03/10 13:27:54;;;;;;;2.77;1.93;;;;;;;14.29;64.67;96284.13;6324846;28;20670;-51
2024/03/10 13:30:57;;;;;;;4.43;2.13;;;;;;;14.30;65.37;96285.69;6330591;28;20201;-55
2024/03/10 13:33:59;;;;;;;3.00;1.97;;;;;;;14.29;63.50;96268.84;6337788;28;20197;-55
2024/03/10 13:37:04;;;;;;;3.53;2.23;;;;;;;14.50;61.97;96274.59;6315377;28;20574;-53
2024/03/10 13:40:13;;;;;;;4.17;2.27;;;;;;;14.27;62.31;96254.16;6325396;28;20201;-52
2024/03/10 13:43:15;;;;;;;4.30;2.10;;;;;;;14.41;63.33;96277.16;6323102;28;20202;-55
2024/03/10 13:46:17;;;;;;;6.23;2.10;;;;;;;14.43;62.15;96253.53;6323101;28;20205;-56
2024/03/10 13:49:19;;;;;;;3.10;1.40;;;;;;;14.42;61.34;96270.69;6325712;28;20201;-55
2024/03/10 13:52:22;;;;;;;5.30;1.77;;;;;;;14.29;63.34;96262.69;6311546;28;20200;-50
2024/03/10 13:55:25;;;;;;;6.23;1.90;;;;;;;14.31;62.31;96265.84;6329507;28;20178;-53
2024/03/10 13:58:28;;;;;;;4.50;1.90;;;;;;;14.22;63.52;96222.91;6315458;28;20676;-54
2024/03/10 14:01:33;;;;;;;6.00;1.70;;;;;;;14.31;62.07;96214.97;6333630;28;20272;-54
2024/03/10 14:04:36;;;;;;;4.43;1.90;;;;;;;14.34;63.09;96225.09;6320501;28;20187;-54
2024/03/10 14:07:38;;;;;;;4.93;2.10;;;;;;;14.29;63.14;96204.56;6323503;28;20322;-55
2024/03/10 14:10:40;;;;;;;4.80;2.10;;;;;;;14.24;63.03;96198.53;6311735;28;20202;-51
2024/03/10 14:13:44;;;;;;;3.50;2.00;;;;;;;14.17;63.27;96180.16;6326171;28;20293;-54
2024/03/10 14:16:49;;;;;;;3.60;1.97;;;;;;;14.18;63.33;96190.56;6312709;28;20236;-51
2024/03/10 14:19:54;;;;;;;7.43;2.37;;;;;;;14.12;63.73;96172.25;6327798;28;20274;-53
2024/03/10 14:22:56;;;;;;;7.17;2.10;;;;;;;14.08;64.39;96181.97;6317959;28;20744;-55
2024/03/10 14:25:59;;;;;;;3.97;1.90;;;;;;;14.13;63.51;96181.84;6318855;28;20611;-53
2024/03/10 14:29:01;;;;;;;4.47;2.23;;;;;;;14.12;63.26;96189.09;6337521;28;20450;-55
2024/03/10 14:32:06;;;;;;;5.47;2.07;;;;;;;14.17;63.20;96188.97;6343001;28;20574;-54
2024/03/10 14:35:11;;;;;;;6.60;2.40;;;;;;;14.22;63.38;96185.41;6330655;28;20207;-51
2024/03/10 14:38:13;;;;;;;6.13;2.30;;;;;;;13.85;64.88;96167.75;6331172;28;20198;-53
2024/03/10 14:41:15;;;;;;;6.03;2.30;;;;;;;14.16;63.69;96197.31;6328083;28;20190;-52